Time;durP1;ratioP1;P1;durP2;ratioP2;P2;SDS_P1;SDS_P2;PMS_P1;PMS_P2;Temp;Humidity;BMP_temperature;BMP_pressure;BME280_temperature;BME280_humidity;BME280_pressure;Samples;Min_cycle;Max_cycle;Signal;HPM_P1;HPM_P2
2022/03/20 00:01:10;;;;;;;2.90;1.27;;;;;;;;;;5069146;28;20124;-73
2022/03/20 00:03:36;;;;;;;3.47;1.10;;;;;;;;;;5067187;28;20090;-73
2022/03/20 00:06:03;;;;;;;2.17;1.10;;;;;;;;;;5086452;28;20043;-73
2022/03/20 00:08:30;;;;;;;1.77;1.20;;;;;;;;;;5086494;28;20047;-73
2022/03/20 00:11:02;;;;;;;2.38;1.10;;;;;;;;;;5087303;28;20116;-74
2022/03/20 00:13:29;;;;;;;2.13;1.48;;;;;;;;;;5086631;28;20130;-73
2022/03/20 00:15:57;;;;;;;4.45;1.13;;;;;;;;;;5086759;28;20071;-73
2022/03/20 00:18:23;;;;;;;3.05;1.17;;;;;;;;;;5086100;28;20505;-73
2022/03/20 00:20:51;;;;;;;2.38;1.00;;;;;;;;;;5087107;28;20050;-74
2022/03/20 00:23:18;;;;;;;1.52;1.00;;;;;;;;;;5086420;28;20155;-73
2022/03/20 00:25:45;;;;;;;3.22;1.23;;;;;;;;;;5085984;28;20410;-73
2022/03/20 00:28:15;;;;;;;4.80;1.42;;;;;;;;;;5086212;28;20098;-74
2022/03/20 00:30:42;;;;;;;3.20;1.50;;;;;;;;;;5083890;28;20131;-73
2022/03/20 00:33:08;;;;;;;2.17;1.08;;;;;;;;;;5066954;28;20044;-73
2022/03/20 00:35:35;;;;;;;3.05;1.30;;;;;;;;;;5068175;28;20135;-72
2022/03/20 00:38:01;;;;;;;2.83;1.15;;;;;;;;;;5087101;28;20040;-73
2022/03/20 00:40:27;;;;;;;2.35;1.10;;;;;;;;;;5086784;28;20098;-73
2022/03/20 00:42:53;;;;;;;1.50;1.00;;;;;;;;;;5086246;28;20040;-73
2022/03/20 00:45:20;;;;;;;3.35;1.20;;;;;;;;;;5087036;28;20044;-75
2022/03/20 00:47:48;;;;;;;3.35;1.25;;;;;;;;;;5086460;28;20046;-70
2022/03/20 00:50:14;;;;;;;6.00;1.48;;;;;;;;;;5086844;28;20044;-72
2022/03/20 00:52:40;;;;;;;5.18;1.17;;;;;;;;;;5086561;28;20040;-72
2022/03/20 00:55:06;;;;;;;3.42;1.38;;;;;;;;;;5086733;28;20497;-72
2022/03/20 00:57:32;;;;;;;9.68;1.48;;;;;;;;;;5086856;28;20043;-71
2022/03/20 00:59:58;;;;;;;2.15;1.17;;;;;;;;;;5087359;28;20047;-72
2022/03/20 01:02:24;;;;;;;5.65;1.17;;;;;;;;;;5087600;28;20036;-73
2022/03/20 01:04:50;;;;;;;3.92;1.50;;;;;;;;;;5086421;28;20119;-73
2022/03/20 01:07:16;;;;;;;3.20;1.30;;;;;;;;;;5068865;28;20040;-73
2022/03/20 01:09:43;;;;;;;4.60;1.58;;;;;;;;;;5068579;28;20052;-73
2022/03/20 01:12:09;;;;;;;5.55;1.20;;;;;;;;;;5069220;28;20131;-73
2022/03/20 01:14:35;;;;;;;2.65;1.25;;;;;;;;;;5087361;28;20036;-73
2022/03/20 01:17:02;;;;;;;2.30;1.02;;;;;;;;;;5086934;28;20097;-72
2022/03/20 01:19:28;;;;;;;2.28;1.40;;;;;;;;;;5069019;28;20476;-73
2022/03/20 01:21:55;;;;;;;3.03;1.27;;;;;;;;;;5065949;28;20131;-73
2022/03/20 01:24:24;;;;;;;2.92;1.42;;;;;;;;;;5086443;28;20517;-73
2022/03/20 01:26:50;;;;;;;2.83;1.37;;;;;;;;;;5086497;28;20098;-73
2022/03/20 01:29:16;;;;;;;3.00;1.27;;;;;;;;;;5068626;28;20074;-73
2022/03/20 01:31:42;;;;;;;2.42;1.38;;;;;;;;;;5069096;28;20109;-73
2022/03/20 01:34:08;;;;;;;3.55;1.40;;;;;;;;;;5086521;28;20048;-73
2022/03/20 01:36:34;;;;;;;2.35;1.50;;;;;;;;;;5070089;28;20059;-74
2022/03/20 01:39:01;;;;;;;2.15;1.27;;;;;;;;;;5072568;28;20120;-73
2022/03/20 01:41:27;;;;;;;3.60;1.30;;;;;;;;;;5090287;28;20043;-73
2022/03/20 01:43:54;;;;;;;2.28;1.10;;;;;;;;;;5073122;28;20253;-73
2022/03/20 01:46:20;;;;;;;6.55;1.13;;;;;;;;;;5090590;28;20043;-73
2022/03/20 01:48:46;;;;;;;2.13;1.05;;;;;;;;;;5090565;28;20074;-72
2022/03/20 01:51:13;;;;;;;6.43;1.23;;;;;;;;;;5090545;28;20048;-71
2022/03/20 01:53:39;;;;;;;2.33;1.40;;;;;;;;;;5071804;28;20044;-72
2022/03/20 01:56:06;;;;;;;3.55;1.27;;;;;;;;;;5090164;28;20036;-72
2022/03/20 01:58:33;;;;;;;6.70;1.35;;;;;;;;;;5090714;28;20104;-72
2022/03/20 02:00:59;;;;;;;3.45;1.17;;;;;;;;;;5089513;28;20451;-72
2022/03/20 02:03:25;;;;;;;3.42;1.42;;;;;;;;;;5090504;28;20075;-71
2022/03/20 02:05:52;;;;;;;4.05;1.10;;;;;;;;;;5070476;28;20040;-71
2022/03/20 02:08:25;;;;;;;3.22;1.35;;;;;;;;;;5089892;28;20104;-71
2022/03/20 02:10:52;;;;;;;3.78;1.13;;;;;;;;;;5070058;28;20040;-71
2022/03/20 02:13:21;;;;;;;4.88;1.60;;;;;;;;;;5090407;28;20078;-72
2022/03/20 02:15:48;;;;;;;2.72;1.30;;;;;;;;;;5089149;28;20044;-72
2022/03/20 02:18:15;;;;;;;3.60;1.30;;;;;;;;;;5090423;28;20043;-72
2022/03/20 02:20:41;;;;;;;3.20;1.40;;;;;;;;;;5089639;28;20044;-72
2022/03/20 02:23:07;;;;;;;3.10;1.40;;;;;;;;;;5089937;28;20130;-72
2022/03/20 02:25:34;;;;;;;2.70;1.08;;;;;;;;;;5089686;28;20044;-72
2022/03/20 02:28:00;;;;;;;1.95;1.20;;;;;;;;;;5071542;28;20051;-71
2022/03/20 02:30:30;;;;;;;3.45;1.20;;;;;;;;;;5089368;28;20048;-72
2022/03/20 02:32:56;;;;;;;2.10;1.20;;;;;;;;;;5071033;28;20421;-71
2022/03/20 02:35:22;;;;;;;2.67;1.25;;;;;;;;;;5089044;28;20133;-71
2022/03/20 02:37:53;;;;;;;2.60;1.33;;;;;;;;;;5089591;28;20052;-71
2022/03/20 02:40:20;;;;;;;2.08;1.10;;;;;;;;;;5089112;28;20062;-72
2022/03/20 02:42:51;;;;;;;1.48;0.95;;;;;;;;;;5086867;28;20410;-71
2022/03/20 02:45:28;;;;;;;2.55;1.25;;;;;;;;;;5089627;28;20040;-71
2022/03/20 02:47:54;;;;;;;3.60;1.25;;;;;;;;;;5087615;28;20056;-72
2022/03/20 02:50:24;;;;;;;2.40;1.17;;;;;;;;;;5088423;28;20040;-71
2022/03/20 02:52:51;;;;;;;2.30;1.40;;;;;;;;;;5087581;28;20051;-72
2022/03/20 02:55:25;;;;;;;2.15;1.50;;;;;;;;;;5088402;28;20044;-72
2022/03/20 02:57:52;;;;;;;3.50;1.30;;;;;;;;;;5087933;28;20066;-72
2022/03/20 03:00:21;;;;;;;2.75;1.00;;;;;;;;;;5086434;28;20051;-72
2022/03/20 03:02:47;;;;;;;2.78;1.00;;;;;;;;;;5069716;28;20067;-72
2022/03/20 03:05:14;;;;;;;1.60;1.00;;;;;;;;;;5088253;28;20040;-72
2022/03/20 03:13:11;;;;;;;1.55;1.00;;;;;;;;;;5087405;28;20048;-72
2022/03/20 03:15:37;;;;;;;3.35;1.38;;;;;;;;;;5088993;28;20051;-73
2022/03/20 03:18:03;;;;;;;3.17;1.38;;;;;;;;;;5088359;28;20175;-73
2022/03/20 03:20:30;;;;;;;3.08;1.20;;;;;;;;;;5070690;28;20043;-73
2022/03/20 03:22:56;;;;;;;2.00;1.23;;;;;;;;;;5088805;28;20039;-73
2022/03/20 03:25:25;;;;;;;2.90;1.50;;;;;;;;;;5088697;28;20067;-71
2022/03/20 03:27:52;;;;;;;1.92;1.10;;;;;;;;;;5087725;28;20059;-72
2022/03/20 03:30:18;;;;;;;1.92;1.15;;;;;;;;;;5088553;28;20507;-72
2022/03/20 03:32:44;;;;;;;4.18;1.40;;;;;;;;;;5087960;28;20040;-72
2022/03/20 03:37:56;;;;;;;4.10;1.60;;;;;;;;;;5069847;28;20047;-76
2022/03/20 03:40:22;;;;;;;2.50;1.50;;;;;;;;;;5088556;28;20044;-76
2022/03/20 03:42:48;;;;;;;3.90;1.70;;;;;;;;;;5088166;28;20040;-72
2022/03/20 03:45:14;;;;;;;3.20;1.75;;;;;;;;;;5087473;28;20139;-73
2022/03/20 03:47:41;;;;;;;10.23;2.38;;;;;;;;;;5087746;28;20044;-72
2022/03/20 03:50:08;;;;;;;5.88;1.80;;;;;;;;;;5088595;28;20566;-73
2022/03/20 03:52:34;;;;;;;5.70;1.70;;;;;;;;;;5069171;28;20043;-72
2022/03/20 03:55:00;;;;;;;3.70;1.80;;;;;;;;;;5088707;28;20048;-72
2022/03/20 03:57:26;;;;;;;3.40;1.63;;;;;;;;;;5088133;28;20044;-72
2022/03/20 03:59:53;;;;;;;4.00;1.70;;;;;;;;;;5086744;28;20516;-72
2022/03/20 04:02:19;;;;;;;2.65;1.77;;;;;;;;;;5087994;28;20104;-72
2022/03/20 04:04:47;;;;;;;3.60;2.13;;;;;;;;;;5087789;28;20059;-72
2022/03/20 04:07:17;;;;;;;3.42;1.75;;;;;;;;;;5086823;28;20044;-72
2022/03/20 04:09:43;;;;;;;3.72;2.00;;;;;;;;;;5087664;28;20040;-72
2022/03/20 04:12:09;;;;;;;2.63;1.90;;;;;;;;;;5087936;28;20147;-72
2022/03/20 04:14:35;;;;;;;4.10;1.73;;;;;;;;;;5086511;28;20174;-72
2022/03/20 04:17:05;;;;;;;3.53;2.10;;;;;;;;;;5087052;28;20550;-72
2022/03/20 04:19:31;;;;;;;3.47;1.60;;;;;;;;;;5067514;28;20148;-72
2022/03/20 04:21:57;;;;;;;4.45;1.83;;;;;;;;;;5086251;28;20058;-73
2022/03/20 04:24:23;;;;;;;4.75;1.90;;;;;;;;;;5087281;28;20036;-73
2022/03/20 04:26:49;;;;;;;4.35;1.77;;;;;;;;;;5086422;28;20427;-73
2022/03/20 04:29:16;;;;;;;6.40;2.20;;;;;;;;;;5086245;28;20585;-73
2022/03/20 04:31:42;;;;;;;3.22;1.90;;;;;;;;;;5086599;28;20144;-73
2022/03/20 04:34:08;;;;;;;3.22;1.88;;;;;;;;;;5085590;28;20071;-72
2022/03/20 04:36:34;;;;;;;3.20;1.80;;;;;;;;;;5086231;28;20044;-72
2022/03/20 04:39:01;;;;;;;3.30;1.80;;;;;;;;;;5086744;28;20036;-72
2022/03/20 04:41:27;;;;;;;2.38;1.70;;;;;;;;;;5086461;28;20066;-72
2022/03/20 04:43:54;;;;;;;3.47;2.25;;;;;;;;;;5085765;28;20051;-72
2022/03/20 04:46:21;;;;;;;4.32;1.98;;;;;;;;;;5086368;28;20036;-72
2022/03/20 04:59:47;;;;;;;4.45;2.20;;;;;;;;;;5066055;28;20074;-71
2022/03/20 05:02:13;;;;;;;3.53;2.08;;;;;;;;;;5086785;28;20040;-71
2022/03/20 05:04:39;;;;;;;2.95;1.75;;;;;;;;;;5086174;28;20044;-71
2022/03/20 05:07:06;;;;;;;4.22;2.08;;;;;;;;;;5085522;28;20052;-72
2022/03/20 05:15:09;;;;;;;3.38;1.70;;;;;;;;;;5085738;28;20040;-72
2022/03/20 05:17:35;;;;;;;3.40;2.17;;;;;;;;;;5085429;28;20044;-72
2022/03/20 05:20:02;;;;;;;3.30;2.08;;;;;;;;;;5086633;28;20036;-72
2022/03/20 05:22:28;;;;;;;3.00;1.50;;;;;;;;;;5086165;28;20052;-72
2022/03/20 05:24:54;;;;;;;3.63;1.85;;;;;;;;;;5068024;28;20047;-74
2022/03/20 05:27:20;;;;;;;4.25;2.00;;;;;;;;;;5083882;28;20116;-73
2022/03/20 05:29:46;;;;;;;4.18;2.10;;;;;;;;;;5084622;28;20123;-73
2022/03/20 05:32:13;;;;;;;3.17;1.85;;;;;;;;;;5047769;28;20179;-73
2022/03/20 05:34:39;;;;;;;5.20;2.13;;;;;;;;;;5085794;28;20494;-73
2022/03/20 05:37:07;;;;;;;4.57;2.10;;;;;;;;;;5085975;28;20052;-73
2022/03/20 05:39:33;;;;;;;4.15;1.98;;;;;;;;;;5068447;28;20062;-73
2022/03/20 05:41:59;;;;;;;4.72;1.92;;;;;;;;;;5067689;28;20074;-72
2022/03/20 05:44:27;;;;;;;3.58;2.08;;;;;;;;;;5086006;28;20099;-73
2022/03/20 05:46:54;;;;;;;2.55;1.67;;;;;;;;;;5065210;28;20497;-74
2022/03/20 05:49:21;;;;;;;3.80;1.85;;;;;;;;;;5067711;28;20127;-72
2022/03/20 05:51:47;;;;;;;3.92;2.00;;;;;;;;;;5085303;28;20079;-73
2022/03/20 05:54:15;;;;;;;4.10;1.90;;;;;;;;;;5085667;28;20524;-73
2022/03/20 05:59:26;;;;;;;4.95;2.00;;;;;;;;;;5084289;28;20048;-73
2022/03/20 06:01:52;;;;;;;5.32;2.10;;;;;;;;;;5067955;28;20040;-75
2022/03/20 06:04:19;;;;;;;4.28;2.30;;;;;;;;;;5085781;28;20044;-76
2022/03/20 06:06:48;;;;;;;6.38;2.55;;;;;;;;;;5084917;28;20087;-74
2022/03/20 06:09:14;;;;;;;10.68;2.50;;;;;;;;;;5085700;28;20510;-72
2022/03/20 06:11:40;;;;;;;6.35;2.65;;;;;;;;;;5085602;28;20527;-73
2022/03/20 06:14:06;;;;;;;8.02;2.65;;;;;;;;;;5085264;28;20455;-73
2022/03/20 06:16:32;;;;;;;6.05;2.60;;;;;;;;;;5086384;28;20032;-72
2022/03/20 06:18:58;;;;;;;7.13;3.00;;;;;;;;;;5085961;28;20050;-73
2022/03/20 06:21:25;;;;;;;7.25;3.20;;;;;;;;;;5084872;28;20059;-72
2022/03/20 06:23:53;;;;;;;4.65;2.65;;;;;;;;;;5070357;28;20036;-73
2022/03/20 06:26:19;;;;;;;6.07;2.88;;;;;;;;;;5071377;28;20455;-73
2022/03/20 06:28:48;;;;;;;8.70;2.10;;;;;;;;;;5070260;28;20091;-73
2022/03/20 06:31:15;;;;;;;6.57;3.15;;;;;;;;;;5088892;28;20153;-73
2022/03/20 06:33:41;;;;;;;6.55;2.80;;;;;;;;;;5088537;28;20060;-73
2022/03/20 06:36:07;;;;;;;5.38;2.90;;;;;;;;;;5070216;28;20127;-73
2022/03/20 06:38:35;;;;;;;5.15;2.83;;;;;;;;;;5089261;28;20051;-74
2022/03/20 06:41:01;;;;;;;5.43;2.45;;;;;;;;;;5072585;28;20058;-75
2022/03/20 06:43:30;;;;;;;5.32;2.92;;;;;;;;;;5090207;28;20517;-74
2022/03/20 06:45:57;;;;;;;5.38;2.60;;;;;;;;;;5089359;28;20085;-74
2022/03/20 06:48:24;;;;;;;3.58;2.53;;;;;;;;;;5071419;28;20501;-74
2022/03/20 06:50:50;;;;;;;3.88;2.38;;;;;;;;;;5087544;28;20143;-73
2022/03/20 06:53:17;;;;;;;4.35;2.60;;;;;;;;;;5089994;28;20142;-72
2022/03/20 06:55:44;;;;;;;5.03;2.80;;;;;;;;;;5088810;28;20391;-70
2022/03/20 06:58:10;;;;;;;5.93;2.50;;;;;;;;;;5053623;28;20055;-71
2022/03/20 07:00:37;;;;;;;6.03;2.75;;;;;;;;;;5089249;28;20032;-72
2022/03/20 07:03:06;;;;;;;3.78;2.60;;;;;;;;;;5089377;28;20040;-72
2022/03/20 07:05:32;;;;;;;4.03;2.65;;;;;;;;;;5088865;28;20534;-72
2022/03/20 07:07:59;;;;;;;4.18;2.75;;;;;;;;;;5068264;28;20050;-72
2022/03/20 07:10:26;;;;;;;5.07;2.75;;;;;;;;;;5089610;28;20070;-71
2022/03/20 07:15:37;;;;;;;4.00;2.58;;;;;;;;;;5088220;28;20196;-70
2022/03/20 07:18:03;;;;;;;4.47;2.88;;;;;;;;;;5087687;28;20082;-70
2022/03/20 07:20:29;;;;;;;4.00;2.30;;;;;;;;;;5070333;28;20083;-71
2022/03/20 07:22:56;;;;;;;7.13;2.83;;;;;;;;;;5088430;28;20040;-71
2022/03/20 07:30:51;;;;;;;7.55;3.00;;;;;;;;;;5086231;28;20063;-73
2022/03/20 07:33:17;;;;;;;6.38;3.30;;;;;;;;;;5068950;28;20048;-74
2022/03/20 07:35:43;;;;;;;7.30;3.25;;;;;;;;;;5069776;28;20060;-73
2022/03/20 07:38:09;;;;;;;10.43;3.08;;;;;;;;;;5088539;28;20047;-74
2022/03/20 07:40:35;;;;;;;6.22;2.78;;;;;;;;;;5070316;28;20761;-72
2022/03/20 07:43:01;;;;;;;11.98;3.70;;;;;;;;;;5089146;28;20062;-72
2022/03/20 07:45:27;;;;;;;7.10;2.97;;;;;;;;;;5088187;28;20036;-72
2022/03/20 07:47:53;;;;;;;5.25;3.47;;;;;;;;;;5088168;28;20044;-73
2022/03/20 07:50:19;;;;;;;5.65;2.85;;;;;;;;;;5088601;28;20070;-72
2022/03/20 07:52:47;;;;;;;6.93;2.80;;;;;;;;;;5087550;28;20083;-74
2022/03/20 07:55:13;;;;;;;6.25;2.95;;;;;;;;;;5070407;28;20048;-75
2022/03/20 07:57:42;;;;;;;9.43;3.60;;;;;;;;;;5087777;28;20051;-75
2022/03/20 08:00:09;;;;;;;6.05;3.15;;;;;;;;;;5088514;28;20032;-75
2022/03/20 08:02:36;;;;;;;8.35;3.08;;;;;;;;;;5070171;28;20544;-74
2022/03/20 08:05:02;;;;;;;5.47;2.85;;;;;;;;;;5070208;28;20075;-74
2022/03/20 08:07:28;;;;;;;5.13;3.00;;;;;;;;;;5070681;28;20040;-74
2022/03/20 08:09:54;;;;;;;6.40;3.03;;;;;;;;;;5088602;28;20052;-73
2022/03/20 08:12:22;;;;;;;9.10;3.42;;;;;;;;;;5085802;28;20123;-74
2022/03/20 08:14:48;;;;;;;10.68;3.20;;;;;;;;;;5088601;28;20498;-75
2022/03/20 08:17:15;;;;;;;8.65;3.78;;;;;;;;;;5087541;28;20052;-74
2022/03/20 08:19:41;;;;;;;9.18;3.38;;;;;;;;;;5087903;28;20427;-74
2022/03/20 08:22:07;;;;;;;6.57;3.00;;;;;;;;;;5069714;28;20082;-74
2022/03/20 08:24:33;;;;;;;11.90;3.40;;;;;;;;;;5069667;28;20032;-75
2022/03/20 08:26:59;;;;;;;6.88;3.05;;;;;;;;;;5087358;28;20108;-75
2022/03/20 08:29:25;;;;;;;8.13;3.38;;;;;;;;;;5086861;28;20035;-73
2022/03/20 08:31:54;;;;;;;13.20;6.90;;;;;;;;;;5088381;28;20131;-72
2022/03/20 08:34:20;;;;;;;12.05;8.38;;;;;;;;;;5087138;28;20059;-72
2022/03/20 08:36:46;;;;;;;13.13;9.13;;;;;;;;;;5086855;28;20470;-74
2022/03/20 08:39:13;;;;;;;17.92;10.20;;;;;;;;;;5069223;28;20119;-73
2022/03/20 08:41:39;;;;;;;13.07;9.13;;;;;;;;;;5069088;28;20055;-72
2022/03/20 08:44:05;;;;;;;15.20;10.68;;;;;;;;;;5069340;28;20076;-71
2022/03/20 08:46:32;;;;;;;15.38;10.23;;;;;;;;;;5067471;28;20044;-71
2022/03/20 08:48:58;;;;;;;14.30;10.38;;;;;;;;;;5085313;28;20123;-72
2022/03/20 08:51:24;;;;;;;14.40;10.50;;;;;;;;;;5069344;28;20090;-71
2022/03/20 08:53:50;;;;;;;15.60;11.05;;;;;;;;;;5086514;28;20036;-71
2022/03/20 08:56:17;;;;;;;13.35;10.07;;;;;;;;;;5087173;28;20052;-71
2022/03/20 08:58:44;;;;;;;15.07;11.25;;;;;;;;;;5086117;28;20122;-71
2022/03/20 09:01:11;;;;;;;15.30;11.43;;;;;;;;;;5066153;28;20067;-72
2022/03/20 09:03:37;;;;;;;16.33;11.52;;;;;;;;;;5085925;28;20056;-73
2022/03/20 09:06:03;;;;;;;16.27;11.15;;;;;;;;;;5086928;28;20040;-72
2022/03/20 09:08:29;;;;;;;18.40;11.98;;;;;;;;;;5087442;28;20036;-72
2022/03/20 09:10:55;;;;;;;16.13;10.95;;;;;;;;;;5086847;28;20040;-72
2022/03/20 09:13:21;;;;;;;15.98;11.85;;;;;;;;;;5087117;28;20055;-72
2022/03/20 09:18:58;;;;;;;15.75;12.13;;;;;;;;;;5069565;28;20497;-71
2022/03/20 09:21:18;;;;;;;14.85;10.50;;;;;;;;;;5080867;28;20060;-73
2022/03/20 09:23:44;;;;;;;17.10;11.75;;;;;;;;;;5092982;28;20071;-73
2022/03/20 09:26:10;;;;;;;16.85;12.13;;;;;;;;;;5085009;28;20119;-74
2022/03/20 09:28:36;;;;;;;19.60;12.48;;;;;;;;;;5086447;28;20135;-72
2022/03/20 09:31:02;;;;;;;18.10;12.18;;;;;;;;;;5067577;28;20408;-73
2022/03/20 09:33:29;;;;;;;18.00;11.13;;;;;;;;;;5085792;28;20359;-73
2022/03/20 09:35:55;;;;;;;19.27;12.68;;;;;;;;;;5083954;28;20052;-72
2022/03/20 09:38:23;;;;;;;18.55;12.65;;;;;;;;;;5067789;28;20062;-73
2022/03/20 09:40:50;;;;;;;18.08;11.35;;;;;;;;;;5067734;28;20492;-73
2022/03/20 09:43:16;;;;;;;17.58;11.75;;;;;;;;;;5085700;28;20036;-73
2022/03/20 09:45:42;;;;;;;17.15;12.70;;;;;;;;;;5085951;28;20040;-73
2022/03/20 09:48:09;;;;;;;16.85;12.32;;;;;;;;;;5084252;28;20093;-74
2022/03/20 09:50:35;;;;;;;43.22;12.82;;;;;;;;;;5050196;28;20047;-71
2022/03/20 09:53:01;;;;;;;17.25;10.40;;;;;;;;;;5083138;28;20036;-71
2022/03/20 09:55:27;;;;;;;14.30;9.52;;;;;;;;;;5086061;28;20040;-72
2022/03/20 09:57:55;;;;;;;14.18;8.18;;;;;;;;;;5088403;28;20075;-71
2022/03/20 10:00:21;;;;;;;15.00;9.57;;;;;;;;;;5091189;28;20694;-72
2022/03/20 10:02:47;;;;;;;13.00;7.90;;;;;;;;;;5090746;28;20047;-70
2022/03/20 10:05:19;;;;;;;12.18;8.25;;;;;;;;;;5090829;28;20119;-71
2022/03/20 10:07:46;;;;;;;13.38;7.70;;;;;;;;;;5088491;28;20123;-71
2022/03/20 10:10:23;;;;;;;14.90;7.90;;;;;;;;;;5087141;28;20101;-69
2022/03/20 10:12:51;;;;;;;15.52;7.65;;;;;;;;;;5090030;28;20144;-68
2022/03/20 10:15:35;;;;;;;9.88;6.82;;;;;;;;;;5090236;28;20046;-69
2022/03/20 10:18:05;;;;;;;9.98;7.30;;;;;;;;;;5090415;28;20066;-70
2022/03/20 10:20:35;;;;;;;13.68;9.00;;;;;;;;;;5088980;28;20072;-70
2022/03/20 10:23:01;;;;;;;10.93;7.00;;;;;;;;;;5090649;28;20040;-70
2022/03/20 10:25:27;;;;;;;11.90;7.15;;;;;;;;;;5090008;28;20048;-72
2022/03/20 10:27:57;;;;;;;9.70;6.82;;;;;;;;;;5070809;28;20043;-73
2022/03/20 10:30:24;;;;;;;10.18;7.13;;;;;;;;;;5090673;28;20048;-73
2022/03/20 10:32:51;;;;;;;10.90;7.03;;;;;;;;;;5089455;28;20130;-73
2022/03/20 10:35:18;;;;;;;11.07;7.65;;;;;;;;;;5090084;28;20116;-72
2022/03/20 10:37:45;;;;;;;11.80;7.22;;;;;;;;;;5071093;28;20455;-73
2022/03/20 10:40:12;;;;;;;10.80;7.38;;;;;;;;;;5090379;28;20040;-73
2022/03/20 10:42:38;;;;;;;10.05;7.07;;;;;;;;;;5071165;28;20114;-73
2022/03/20 10:45:06;;;;;;;10.07;6.65;;;;;;;;;;5087357;28;20040;-73
2022/03/20 10:47:32;;;;;;;10.77;7.55;;;;;;;;;;5089615;28;20040;-71
2022/03/20 10:50:01;;;;;;;12.77;7.30;;;;;;;;;;5089479;28;20048;-71
2022/03/20 10:52:29;;;;;;;12.38;7.35;;;;;;;;;;5089176;28;20044;-72
2022/03/20 10:54:55;;;;;;;10.35;7.65;;;;;;;;;;5089856;28;20474;-70
2022/03/20 10:57:22;;;;;;;11.45;7.20;;;;;;;;;;5088991;28;20062;-72
2022/03/20 10:59:58;;;;;;;10.95;7.50;;;;;;;;;;5071798;28;20044;-71
2022/03/20 11:02:25;;;;;;;13.45;8.43;;;;;;;;;;5088707;28;20459;-71
2022/03/20 11:04:52;;;;;;;10.52;7.25;;;;;;;;;;5089347;28;20081;-71
2022/03/20 11:07:18;;;;;;;9.73;7.03;;;;;;;;;;5089199;28;20079;-71
2022/03/20 11:09:46;;;;;;;9.32;6.82;;;;;;;;;;5089527;28;20036;-71
2022/03/20 11:12:15;;;;;;;11.50;7.10;;;;;;;;;;5085875;28;20040;-72
2022/03/20 11:14:43;;;;;;;11.77;7.70;;;;;;;;;;5087270;28;20048;-70
2022/03/20 11:17:12;;;;;;;10.80;7.53;;;;;;;;;;5088831;28;20145;-72
2022/03/20 11:19:43;;;;;;;11.90;7.93;;;;;;;;;;5088917;28;20056;-69
2022/03/20 11:22:10;;;;;;;10.52;7.13;;;;;;;;;;5069659;28;20048;-70
2022/03/20 11:24:36;;;;;;;11.95;7.68;;;;;;;;;;5088621;28;20440;-69
2022/03/20 11:27:04;;;;;;;11.10;7.78;;;;;;;;;;5088932;28;20351;-71
2022/03/20 11:29:31;;;;;;;11.88;7.70;;;;;;;;;;5088671;28;20636;-69
2022/03/20 11:32:01;;;;;;;11.20;8.05;;;;;;;;;;5088134;28;20088;-70
2022/03/20 11:34:29;;;;;;;12.07;8.30;;;;;;;;;;5088314;28;20056;-71
2022/03/20 11:37:00;;;;;;;12.68;8.32;;;;;;;;;;5088153;28;20120;-71
2022/03/20 11:39:26;;;;;;;11.55;8.00;;;;;;;;;;5088515;28;20050;-69
2022/03/20 11:42:11;;;;;;;11.68;7.47;;;;;;;;;;5088986;28;20467;-69
2022/03/20 11:44:50;;;;;;;10.68;7.47;;;;;;;;;;5070380;28;20044;-70
2022/03/20 11:47:16;;;;;;;11.07;8.23;;;;;;;;;;5087728;28;20126;-69
2022/03/20 11:49:42;;;;;;;10.90;7.90;;;;;;;;;;5088550;28;20135;-69
2022/03/20 11:52:14;;;;;;;10.45;7.90;;;;;;;;;;5070372;28;20047;-70
2022/03/20 11:54:40;;;;;;;10.80;7.68;;;;;;;;;;5088173;28;20536;-69
2022/03/20 11:57:24;;;;;;;11.18;7.80;;;;;;;;;;5087629;28;20044;-69
2022/03/20 11:59:51;;;;;;;12.00;8.48;;;;;;;;;;5087559;28;20320;-69
2022/03/20 12:02:18;;;;;;;11.50;8.40;;;;;;;;;;5088452;28;20087;-69
2022/03/20 12:05:04;;;;;;;11.00;8.35;;;;;;;;;;5069214;28;20058;-68
2022/03/20 12:07:55;;;;;;;10.27;8.00;;;;;;;;;;5046331;28;20573;-69
2022/03/20 12:10:40;;;;;;;10.80;8.02;;;;;;;;;;5055277;28;20475;-69
2022/03/20 12:13:25;;;;;;;11.00;7.85;;;;;;;;;;5086979;28;20122;-70
2022/03/20 12:15:52;;;;;;;10.70;7.93;;;;;;;;;;5085734;28;20052;-69
2022/03/20 12:18:18;;;;;;;10.60;7.65;;;;;;;;;;5087507;28;20044;-70
2022/03/20 12:20:59;;;;;;;11.60;8.32;;;;;;;;;;5085516;28;20067;-68
2022/03/20 12:23:28;;;;;;;11.07;7.75;;;;;;;;;;5085508;28;20050;-70
2022/03/20 12:25:54;;;;;;;12.50;8.45;;;;;;;;;;5088562;28;20465;-70
2022/03/20 12:28:30;;;;;;;13.75;7.82;;;;;;;;;;5088108;28;20192;-70
2022/03/20 12:30:56;;;;;;;10.18;8.05;;;;;;;;;;5070985;28;20380;-70
2022/03/20 12:33:26;;;;;;;11.80;8.68;;;;;;;;;;5087267;28;20040;-69
2022/03/20 12:35:53;;;;;;;12.23;8.80;;;;;;;;;;5087621;28;20485;-70
2022/03/20 12:38:40;;;;;;;10.05;7.72;;;;;;;;;;5051123;28;20098;-70
2022/03/20 12:41:08;;;;;;;11.52;8.20;;;;;;;;;;5087475;28;20048;-71
2022/03/20 12:43:34;;;;;;;10.90;8.20;;;;;;;;;;5088234;28;20048;-71
2022/03/20 12:46:01;;;;;;;10.68;8.20;;;;;;;;;;5070482;28;20123;-71
2022/03/20 12:48:31;;;;;;;11.82;8.48;;;;;;;;;;5069196;28;20056;-73
2022/03/20 12:51:04;;;;;;;11.13;8.25;;;;;;;;;;5070335;28;20063;-72
2022/03/20 12:53:45;;;;;;;11.63;8.77;;;;;;;;;;5070310;28;20044;-72
2022/03/20 12:58:40;;;;;;;10.70;7.60;;;;;;;;;;5087985;28;20044;-70
2022/03/20 13:01:10;;;;;;;28.05;8.65;;;;;;;;;;5088008;28;20044;-69
2022/03/20 13:03:36;;;;;;;16.40;8.38;;;;;;;;;;5085712;28;20051;-70
2022/03/20 13:06:03;;;;;;;12.02;8.48;;;;;;;;;;5068674;28;20119;-69
2022/03/20 13:08:32;;;;;;;13.35;8.20;;;;;;;;;;5087045;28;20374;-68
2022/03/20 13:11:00;;;;;;;10.38;7.82;;;;;;;;;;5079352;28;20119;-68
2022/03/20 13:13:30;;;;;;;12.20;7.40;;;;;;;;;;5087726;28;20056;-69
2022/03/20 13:15:57;;;;;;;11.50;7.82;;;;;;;;;;5086963;28;20169;-69
2022/03/20 13:18:25;;;;;;;10.65;7.65;;;;;;;;;;5086688;28;20044;-69
2022/03/20 13:20:51;;;;;;;12.60;8.25;;;;;;;;;;5087248;28;20500;-68
2022/03/20 13:23:21;;;;;;;10.75;8.15;;;;;;;;;;5087221;28;20185;-70
2022/03/20 13:25:51;;;;;;;10.85;7.80;;;;;;;;;;5087019;28;20056;-68
2022/03/20 13:28:31;;;;;;;10.38;7.15;;;;;;;;;;5086896;28;20123;-68
2022/03/20 13:30:58;;;;;;;13.32;8.38;;;;;;;;;;5087048;28;20056;-68
2022/03/20 13:33:32;;;;;;;10.05;8.00;;;;;;;;;;5089725;28;20044;-69
2022/03/20 13:36:00;;;;;;;10.45;8.00;;;;;;;;;;5090761;28;20089;-69
2022/03/20 13:38:36;;;;;;;11.05;7.43;;;;;;;;;;5090857;28;20047;-68
2022/03/20 13:41:09;;;;;;;12.50;7.90;;;;;;;;;;5090605;28;20097;-69
2022/03/20 13:43:35;;;;;;;10.02;7.75;;;;;;;;;;5091321;28;20047;-69
2022/03/20 13:46:20;;;;;;;12.77;8.50;;;;;;;;;;5091368;28;20108;-69
2022/03/20 13:48:47;;;;;;;11.40;7.93;;;;;;;;;;5091336;28;20188;-70
2022/03/20 13:51:14;;;;;;;14.35;7.07;;;;;;;;;;5072918;28;20047;-69
2022/03/20 13:53:41;;;;;;;11.23;8.23;;;;;;;;;;5091163;28;20040;-68
2022/03/20 13:56:26;;;;;;;9.73;7.50;;;;;;;;;;5091581;28;20052;-69
2022/03/20 13:59:24;;;;;;;10.55;8.05;;;;;;;;;;5090710;28;20510;-70
2022/03/20 14:01:51;;;;;;;10.25;7.18;;;;;;;;;;5056808;28;20056;-68
2022/03/20 14:04:18;;;;;;;10.98;7.70;;;;;;;;;;5072653;28;20427;-69
2022/03/20 14:06:45;;;;;;;10.63;7.90;;;;;;;;;;5090406;28;20050;-69
2022/03/20 14:09:12;;;;;;;12.93;8.23;;;;;;;;;;5091035;28;20048;-68
2022/03/20 14:11:38;;;;;;;10.82;8.10;;;;;;;;;;5090577;28;20040;-68
2022/03/20 14:14:05;;;;;;;10.60;7.95;;;;;;;;;;5090494;28;20117;-69
2022/03/20 14:16:32;;;;;;;9.82;7.63;;;;;;;;;;5090094;28;20509;-67
2022/03/20 14:19:11;;;;;;;11.32;7.78;;;;;;;;;;5071602;28;20509;-68
2022/03/20 14:21:37;;;;;;;12.25;8.43;;;;;;;;;;5090642;28;20573;-67
2022/03/20 14:24:03;;;;;;;10.43;8.40;;;;;;;;;;5089932;28;20043;-68
2022/03/20 14:26:34;;;;;;;12.23;8.10;;;;;;;;;;5089872;28;20165;-68
2022/03/20 14:39:26;;;;;;;10.75;8.13;;;;;;;;;;5071503;28;20040;-69
2022/03/20 14:40:39;;;;;;;12.65;7.90;;;;;;;;;;5087625;28;20139;-69
2022/03/20 14:43:10;;;;;;;10.40;8.30;;;;;;;;;;5088029;28;20078;-70
2022/03/20 14:45:36;;;;;;;10.18;7.80;;;;;;;;;;5089350;28;20050;-71
2022/03/20 14:48:02;;;;;;;11.98;8.82;;;;;;;;;;5071752;28;20040;-71
2022/03/20 14:50:28;;;;;;;10.18;7.82;;;;;;;;;;5090017;28;20438;-70
2022/03/20 14:52:54;;;;;;;13.32;9.30;;;;;;;;;;5071197;28;20626;-70
2022/03/20 14:55:20;;;;;;;11.35;7.75;;;;;;;;;;5089258;28;20076;-70
2022/03/20 14:57:46;;;;;;;12.85;8.68;;;;;;;;;;5090855;28;20052;-70
2022/03/20 15:00:13;;;;;;;10.48;8.00;;;;;;;;;;5088951;28;20051;-71
2022/03/20 15:02:41;;;;;;;12.88;8.57;;;;;;;;;;5071629;28;20040;-69
2022/03/20 15:05:07;;;;;;;12.95;8.90;;;;;;;;;;5071617;28;20048;-69
2022/03/20 15:07:39;;;;;;;9.50;7.43;;;;;;;;;;5089416;28;20036;-70
2022/03/20 15:12:51;;;;;;;11.07;7.25;;;;;;;;;;5070636;28;20121;-71
2022/03/20 15:15:17;;;;;;;10.15;8.20;;;;;;;;;;5070589;28;20062;-69
2022/03/20 15:17:43;;;;;;;11.82;8.30;;;;;;;;;;5088643;28;20087;-72
2022/03/20 15:20:09;;;;;;;10.02;7.60;;;;;;;;;;5089579;28;20071;-72
2022/03/20 15:22:35;;;;;;;11.52;8.20;;;;;;;;;;5088152;28;20355;-72
2022/03/20 15:25:02;;;;;;;15.05;8.20;;;;;;;;;;5089257;28;20514;-72
2022/03/20 15:27:28;;;;;;;11.85;8.00;;;;;;;;;;5088415;28;20048;-72
2022/03/20 15:29:54;;;;;;;10.40;7.70;;;;;;;;;;5088885;28;20046;-70
2022/03/20 15:32:20;;;;;;;10.70;7.93;;;;;;;;;;5088983;28;21674;-70